KMBL

Manistee Co-Blacker Airport

Manistee, Michigan, USA
METAR KMBL 232156Z AUTO 25009KT 10SM OVC022 03/01 A3012 RMK AO2 SLP221 T00280006
Observed Flight Rules
Feb-23 @ 21:56 UTC (43 minutes ago) Marginal Visual Flight Rules
Wind Visibility Clouds
250° at 9 knots 10 miles
  • Overcast at 2,200' AGL
Temperatures Readings
Current 3°C / 37°F
Dewpoint 1°C / 34°F
Humidity 87%
Altimeter 30.12" Hg
Pressure 1022.1 hPa
Elevation 189
METAR KMBL 232156Z AUTO 25009KT 10SM OVC022 03/01 A3012 RMK AO2 SLP221 T00280006
Observed Flight Rules
Feb-23 @ 21:56 UTC
(43 minutes ago)
MVFR
Wind Visibility
250° at 9 knots 10 miles
Clouds
  • Overcast at 2,200' AGL
Temperature Dewpoint
3°C / 37°F 1°C / 34°F
Humidity Altimeter Pressure
87% 30.12" Hg 1022.1 hPa